createdAt,value
2018-06-02T00:00:48.431Z,18.10
2018-06-02T00:04:05.899Z,18.10
2018-06-02T00:07:23.382Z,18.10
2018-06-02T00:10:40.852Z,18.00
2018-06-02T00:13:58.325Z,18.00
2018-06-02T00:17:15.799Z,18.00
2018-06-02T00:20:33.277Z,18.00
2018-06-02T00:23:51.503Z,18.20
2018-06-02T00:27:08.977Z,18.10
2018-06-02T00:30:26.452Z,18.40
2018-06-02T00:33:43.916Z,18.50
2018-06-02T00:37:01.395Z,18.60
2018-06-02T00:40:18.872Z,18.60
2018-06-02T00:43:37.096Z,18.60
2018-06-02T00:46:54.638Z,18.50
2018-06-02T00:50:12.148Z,18.50
2018-06-02T00:53:29.616Z,18.30
2018-06-02T00:56:47.848Z,18.30
2018-06-02T01:00:06.082Z,18.30
2018-06-02T01:03:23.552Z,18.10
2018-06-02T01:06:41.040Z,18.00
2018-06-02T01:09:58.520Z,17.90
2018-06-02T01:13:15.983Z,17.90
2018-06-02T01:16:33.455Z,17.90
2018-06-02T01:19:51.683Z,17.90
2018-06-02T01:23:09.160Z,17.80
2018-06-02T01:26:26.632Z,17.90
2018-06-02T01:29:44.089Z,17.80
2018-06-02T01:33:03.002Z,17.80
2018-06-02T01:36:20.504Z,17.80
2018-06-02T01:39:37.961Z,17.80
2018-06-02T01:42:55.426Z,17.80
2018-06-02T01:46:12.941Z,17.90
2018-06-02T01:49:30.398Z,17.90
2018-06-02T01:52:48.810Z,17.80
2018-06-02T01:56:06.296Z,17.80
2018-06-02T01:59:23.763Z,17.70
2018-06-02T02:02:41.229Z,17.80
2018-06-02T02:05:58.704Z,17.70
2018-06-02T02:09:16.171Z,17.50
2018-06-02T02:12:33.640Z,17.50
2018-06-02T02:15:51.312Z,17.60
2018-06-02T02:19:08.782Z,17.60
2018-06-02T02:22:26.253Z,17.60
2018-06-02T02:25:43.723Z,17.60
2018-06-02T02:29:01.189Z,17.70
2018-06-02T02:32:19.431Z,17.80
2018-06-02T02:35:37.668Z,17.80
2018-06-02T02:38:55.132Z,17.70
2018-06-02T02:42:12.605Z,17.70
2018-06-02T02:45:30.076Z,17.70
2018-06-02T02:48:48.312Z,17.30
2018-06-02T02:52:06.561Z,17.20
2018-06-02T02:55:24.802Z,17.30
2018-06-02T02:58:42.267Z,17.30
2018-06-02T03:01:59.748Z,17.40
2018-06-02T03:05:17.211Z,17.30
2018-06-02T03:08:35.455Z,17.30
2018-06-02T03:11:53.700Z,17.30
2018-06-02T03:15:11.938Z,17.40
2018-06-02T03:18:29.412Z,17.40
2018-06-02T03:21:46.888Z,17.30
2018-06-02T03:25:04.343Z,17.30
2018-06-02T03:28:22.584Z,17.30
2018-06-02T03:31:40.829Z,17.30
2018-06-02T03:34:59.183Z,17.30
2018-06-02T03:38:17.419Z,17.30
2018-06-02T03:41:34.888Z,17.30
2018-06-02T03:44:52.361Z,17.30
2018-06-02T03:48:09.825Z,17.30
2018-06-02T03:51:28.062Z,17.30
2018-06-02T03:54:46.290Z,17.30
2018-06-02T03:58:03.773Z,17.30
2018-06-02T04:01:21.243Z,17.30
2018-06-02T04:04:38.705Z,17.30
2018-06-02T04:07:56.947Z,17.30
2018-06-02T04:11:15.182Z,17.20
2018-06-02T04:14:32.639Z,17.20
2018-06-02T04:17:50.110Z,17.20
2018-06-02T04:21:07.576Z,17.20
2018-06-02T04:24:25.041Z,17.20
2018-06-02T04:27:42.919Z,17.20
2018-06-02T04:31:00.375Z,17.30
2018-06-02T04:34:17.851Z,17.20
2018-06-02T04:37:35.332Z,17.30
2018-06-02T04:40:52.792Z,17.40
2018-06-02T04:44:10.272Z,17.40
2018-06-02T04:47:27.743Z,17.40
2018-06-02T04:50:45.612Z,17.50
2018-06-02T04:54:03.086Z,17.60
2018-06-02T04:57:20.571Z,17.70
2018-06-02T05:00:38.032Z,17.70
2018-06-02T05:03:55.501Z,17.80
2018-06-02T05:07:13.736Z,18.00
2018-06-02T05:10:31.980Z,18.10
2018-06-02T05:13:49.455Z,18.00
2018-06-02T05:17:06.919Z,17.90
2018-06-02T05:20:24.392Z,17.90
2018-06-02T05:23:41.873Z,18.00
2018-06-02T05:26:59.351Z,17.80
2018-06-02T05:30:17.588Z,17.60
2018-06-02T05:33:35.859Z,17.50
2018-06-02T05:36:53.337Z,17.50
2018-06-02T05:40:10.804Z,17.50
2018-06-02T05:43:29.060Z,17.50
2018-06-02T05:46:46.985Z,17.50
2018-06-02T05:50:05.225Z,17.50
2018-06-02T05:53:23.472Z,17.50
2018-06-02T05:56:41.713Z,17.40
2018-06-02T05:59:59.217Z,17.50
2018-06-02T06:03:16.683Z,17.50
2018-06-02T06:06:34.920Z,17.60
2018-06-02T06:09:52.394Z,17.60
2018-06-02T06:13:09.869Z,17.90
2018-06-02T06:16:27.335Z,18.00
2018-06-02T06:19:45.580Z,18.10
2018-06-02T06:23:03.827Z,18.20
2018-06-02T06:26:22.065Z,18.20
2018-06-02T06:29:40.313Z,18.20
2018-06-02T06:32:58.611Z,18.40
2018-06-02T06:36:16.784Z,18.50
2018-06-02T06:39:34.264Z,18.50
2018-06-02T06:42:51.749Z,18.60
2018-06-02T06:46:09.228Z,18.80
2018-06-02T06:49:26.697Z,19.10
2018-06-02T06:52:44.173Z,19.10
2018-06-02T06:56:02.429Z,19.40
2018-06-02T06:59:20.429Z,19.30
2018-06-02T07:02:38.149Z,19.30
2018-06-02T07:05:55.625Z,19.40
2018-06-02T07:09:13.859Z,19.60
2018-06-02T07:12:31.894Z,19.60
2018-06-02T07:15:49.371Z,19.60
2018-06-02T07:19:06.845Z,19.70
2018-06-02T07:22:24.332Z,20.10
2018-06-02T07:25:41.804Z,20.20
2018-06-02T07:28:59.294Z,20.30
2018-06-02T07:32:16.764Z,20.10
2018-06-02T07:35:34.253Z,20.20
2018-06-02T07:38:51.741Z,20.30
2018-06-02T07:42:09.214Z,20.50
2018-06-02T07:45:26.694Z,20.90
2018-06-02T07:48:44.184Z,20.80
2018-06-02T07:52:01.682Z,20.70
2018-06-02T07:55:19.183Z,21.10
2018-06-02T07:58:36.661Z,21.30
2018-06-02T08:01:54.128Z,21.30
2018-06-02T08:05:11.613Z,21.30
2018-06-02T08:08:29.131Z,21.20
2018-06-02T08:11:46.585Z,21.10
2018-06-02T08:15:04.071Z,20.40
2018-06-02T08:18:21.578Z,20.30
2018-06-02T08:21:39.272Z,20.50
2018-06-02T08:24:56.782Z,20.60
2018-06-02T08:28:15.036Z,21.00
2018-06-02T08:31:33.282Z,21.10
2018-06-02T08:34:51.570Z,21.20
2018-06-02T08:38:09.118Z,21.20
2018-06-02T08:41:26.650Z,21.50
2018-06-02T08:44:44.141Z,21.10
2018-06-02T08:48:01.989Z,21.70
2018-06-02T08:51:19.524Z,22.00
2018-06-02T08:54:37.093Z,21.20
2018-06-02T08:57:55.652Z,20.90
2018-06-02T09:01:13.534Z,20.90
2018-06-02T09:04:31.027Z,20.60
2018-06-02T09:07:48.506Z,21.00
2018-06-02T09:11:05.996Z,21.10
2018-06-02T09:14:23.637Z,20.60
2018-06-02T09:17:41.158Z,20.50
2018-06-02T09:20:59.436Z,20.80
2018-06-02T09:24:16.923Z,20.80
2018-06-02T09:27:34.391Z,21.20
2018-06-02T09:30:52.645Z,21.00
2018-06-02T09:34:10.152Z,21.00
2018-06-02T09:37:27.629Z,21.10
2018-06-02T09:40:45.110Z,21.20
2018-06-02T09:44:03.371Z,21.20
2018-06-02T09:47:21.622Z,22.00
2018-06-02T09:50:39.882Z,22.70
2018-06-02T09:53:57.380Z,22.60
2018-06-02T09:57:15.643Z,22.70
2018-06-02T10:00:36.778Z,23.50
2018-06-02T10:03:54.619Z,23.40
2018-06-02T10:07:12.132Z,22.50
2018-06-02T10:10:30.404Z,22.70
2018-06-02T10:13:49.332Z,22.60
2018-06-02T10:17:07.576Z,22.70
2018-06-02T10:20:25.989Z,22.10
2018-06-02T10:23:44.641Z,22.10
2018-06-02T10:27:03.625Z,22.60
2018-06-02T10:30:22.675Z,22.30
2018-06-02T10:33:40.455Z,22.20
2018-06-02T10:36:58.486Z,22.50
2018-06-02T10:40:17.319Z,22.10
2018-06-02T10:43:36.007Z,21.80
2018-06-02T10:46:54.135Z,21.70
2018-06-02T10:50:11.694Z,21.60
2018-06-02T10:53:29.539Z,21.90
2018-06-02T10:56:47.570Z,21.80
2018-06-02T11:00:05.850Z,21.60
2018-06-02T11:03:23.868Z,21.60
2018-06-02T11:06:41.401Z,21.70
2018-06-02T11:09:59.574Z,21.90
2018-06-02T11:13:17.814Z,21.70
2018-06-02T11:16:35.342Z,22.00
2018-06-02T11:19:53.939Z,22.40
2018-06-02T11:23:11.886Z,22.30
2018-06-02T11:26:30.770Z,22.40
2018-06-02T11:29:48.932Z,22.30
2018-06-02T11:33:07.067Z,22.50
2018-06-02T11:36:25.314Z,22.30
2018-06-02T11:39:43.676Z,23.20
2018-06-02T11:43:01.519Z,23.30
2018-06-02T11:46:20.487Z,23.60
2018-06-02T11:49:38.617Z,23.60
2018-06-02T11:52:56.958Z,23.00
2018-06-02T11:56:15.145Z,23.30
2018-06-02T11:59:32.634Z,23.40
2018-06-02T12:02:50.113Z,22.80
2018-06-02T12:06:07.685Z,23.00
2018-06-02T12:09:25.934Z,24.20
2018-06-02T12:12:44.246Z,23.90
2018-06-02T12:16:01.820Z,23.90
2018-06-02T12:19:19.298Z,23.40
2018-06-02T12:22:36.894Z,23.20
2018-06-02T12:25:54.373Z,23.20
2018-06-02T12:29:11.853Z,23.60
2018-06-02T12:32:29.385Z,25.10
2018-06-02T12:35:46.878Z,26.20
2018-06-02T12:39:05.261Z,26.80
2018-06-02T12:42:22.751Z,27.20
2018-06-02T12:45:40.241Z,27.00
2018-06-02T12:48:57.713Z,28.00
2018-06-02T12:52:15.200Z,26.60
2018-06-02T12:55:32.680Z,26.90
2018-06-02T12:58:50.150Z,27.00
2018-06-02T13:02:07.644Z,27.70
2018-06-02T13:05:25.121Z,28.10
2018-06-02T13:08:43.370Z,30.40
2018-06-02T13:12:00.845Z,30.40
2018-06-02T13:15:18.353Z,29.80
2018-06-02T13:18:39.070Z,28.50
2018-06-02T13:21:56.557Z,29.00
2018-06-02T13:25:14.130Z,28.90
2018-06-02T13:28:31.609Z,30.30
2018-06-02T13:31:49.170Z,31.30
2018-06-02T13:35:07.414Z,29.60
2018-06-02T13:38:28.897Z,29.20
2018-06-02T13:41:46.380Z,29.20
2018-06-02T13:45:04.637Z,27.60
2018-06-02T13:48:22.113Z,27.60
2018-06-02T13:51:39.602Z,27.60
2018-06-02T13:54:57.077Z,27.20
2018-06-02T13:58:14.563Z,27.30
2018-06-02T14:01:32.049Z,26.80
2018-06-02T14:04:49.525Z,26.30
2018-06-02T14:08:07.005Z,27.00
2018-06-02T14:11:24.495Z,27.40
2018-06-02T14:14:41.973Z,27.00
2018-06-02T14:17:59.461Z,27.00
2018-06-02T14:21:16.955Z,27.30
2018-06-02T14:24:35.187Z,26.70
2018-06-02T14:27:52.685Z,26.70
2018-06-02T14:31:10.187Z,26.30
2018-06-02T14:34:27.754Z,26.20
2018-06-02T14:37:45.246Z,26.20
2018-06-02T14:41:02.729Z,26.10
2018-06-02T14:44:20.200Z,25.90
2018-06-02T14:47:37.772Z,25.60
2018-06-02T14:50:55.313Z,25.50
2018-06-02T14:54:12.790Z,25.20
2018-06-02T14:57:30.279Z,24.90
2018-06-02T15:00:47.779Z,25.10
2018-06-02T15:04:05.342Z,25.60
2018-06-02T15:07:22.866Z,25.50
2018-06-02T15:10:40.337Z,25.50
2018-06-02T15:13:57.816Z,25.80
2018-06-02T15:17:15.301Z,25.50
2018-06-02T15:20:32.785Z,25.70
2018-06-02T15:23:50.253Z,25.70
2018-06-02T15:27:08.493Z,25.60
2018-06-02T15:30:26.742Z,26.00
2018-06-02T15:33:44.267Z,25.90
2018-06-02T15:37:02.570Z,26.10
2018-06-02T15:40:20.124Z,26.10
2018-06-02T15:43:37.660Z,25.80
2018-06-02T15:46:55.160Z,26.00
2018-06-02T15:50:12.627Z,25.80
2018-06-02T15:53:30.110Z,25.60
2018-06-02T15:56:47.666Z,25.60
2018-06-02T16:00:05.173Z,25.30
2018-06-02T16:03:22.693Z,25.10
2018-06-02T16:06:40.987Z,24.80
2018-06-02T16:09:58.457Z,24.80
2018-06-02T16:13:16.810Z,24.90
2018-06-02T16:16:34.307Z,24.90
2018-06-02T16:19:51.778Z,25.10
2018-06-02T16:23:09.257Z,25.30
2018-06-02T16:26:26.758Z,25.50
2018-06-02T16:29:44.234Z,25.30
2018-06-02T16:33:01.731Z,25.30
2018-06-02T16:36:19.209Z,25.40
2018-06-02T16:39:37.449Z,25.10
2018-06-02T16:42:54.931Z,25.10
2018-06-02T16:46:12.412Z,25.20
2018-06-02T16:49:30.795Z,25.40
2018-06-02T16:52:48.450Z,25.40
2018-06-02T16:56:05.949Z,25.60
2018-06-02T16:59:23.423Z,25.60
2018-06-02T17:02:41.106Z,25.50
2018-06-02T17:05:59.034Z,25.40
2018-06-02T17:09:16.593Z,25.30
2018-06-02T17:12:34.076Z,25.30
2018-06-02T17:15:51.550Z,25.20
2018-06-02T17:19:09.061Z,25.00
2018-06-02T17:22:27.342Z,24.80
2018-06-02T17:25:45.036Z,24.80
2018-06-02T17:29:02.525Z,24.70
2018-06-02T17:32:20.014Z,24.50
2018-06-02T17:35:38.245Z,24.30
2018-06-02T17:38:55.886Z,24.30
2018-06-02T17:42:13.588Z,24.30
2018-06-02T17:45:31.061Z,24.40
2018-06-02T17:48:49.312Z,24.30
2018-06-02T17:52:07.571Z,24.20
2018-06-02T17:55:25.051Z,24.20
2018-06-02T17:58:43.019Z,24.10
2018-06-02T18:02:01.289Z,24.00
2018-06-02T18:05:18.769Z,24.00
2018-06-02T18:08:36.294Z,23.90
2018-06-02T18:11:53.757Z,23.80
2018-06-02T18:15:11.993Z,23.50
2018-06-02T18:18:29.793Z,23.50
2018-06-02T18:21:47.281Z,23.40
2018-06-02T18:25:05.843Z,23.20
2018-06-02T18:28:23.569Z,23.20
2018-06-02T18:31:41.309Z,23.20
2018-06-02T18:34:59.016Z,23.20
2018-06-02T18:38:17.557Z,22.50
2018-06-02T18:41:36.027Z,22.90
2018-06-02T18:44:54.530Z,22.80
2018-06-02T18:48:12.221Z,22.80
2018-06-02T18:51:30.666Z,22.50
2018-06-02T18:54:48.498Z,22.50
2018-06-02T18:58:06.941Z,22.50
2018-06-02T19:01:24.602Z,22.50
2018-06-02T19:04:42.422Z,22.40
2018-06-02T19:08:00.853Z,22.20
2018-06-02T19:11:18.961Z,22.10
2018-06-02T19:14:36.818Z,22.20
2018-06-02T19:17:54.561Z,22.10
2018-06-02T19:21:12.071Z,22.10
2018-06-02T19:24:30.665Z,22.00
2018-06-02T19:27:48.565Z,21.90
2018-06-02T19:31:06.269Z,21.80
2018-06-02T19:34:23.912Z,21.70
2018-06-02T19:37:41.393Z,21.60
2018-06-02T19:40:59.080Z,21.60
2018-06-02T19:44:16.600Z,21.50
2018-06-02T19:47:34.333Z,21.30
2018-06-02T19:50:51.988Z,21.30
2018-06-02T19:54:09.533Z,21.30
2018-06-02T19:57:27.033Z,21.20
2018-06-02T20:00:44.523Z,21.10
2018-06-02T20:04:02.068Z,20.80
2018-06-02T20:07:19.816Z,20.90
2018-06-02T20:10:37.313Z,20.80
2018-06-02T20:13:54.794Z,20.80
2018-06-02T20:17:12.257Z,20.70
2018-06-02T20:20:29.753Z,20.50
2018-06-02T20:23:47.241Z,20.50
2018-06-02T20:27:04.715Z,20.20
2018-06-02T20:30:22.194Z,20.10
2018-06-02T20:33:39.685Z,20.10
2018-06-02T20:36:57.921Z,20.10
2018-06-02T20:40:15.857Z,20.10
2018-06-02T20:43:33.397Z,20.00
2018-06-02T20:46:51.690Z,19.90
2018-06-02T20:50:09.942Z,19.90
2018-06-02T20:53:27.426Z,20.00
2018-06-02T20:56:44.889Z,20.00
2018-06-02T21:00:02.649Z,20.00
2018-06-02T21:03:20.157Z,20.00
2018-06-02T21:06:37.649Z,19.80
2018-06-02T21:09:55.154Z,19.60
2018-06-02T21:13:13.094Z,19.60
2018-06-02T21:16:30.577Z,19.60
2018-06-02T21:19:48.061Z,19.50
2018-06-02T21:23:05.568Z,19.40
2018-06-02T21:26:23.455Z,19.50
2018-06-02T21:29:40.939Z,19.40
2018-06-02T21:32:58.559Z,19.40
2018-06-02T21:36:16.526Z,19.50
2018-06-02T21:39:34.113Z,19.50
2018-06-02T21:42:52.370Z,19.60
2018-06-02T21:46:10.030Z,19.60
2018-06-02T21:49:27.682Z,19.60
2018-06-02T21:52:45.152Z,19.50
2018-06-02T21:56:03.420Z,19.30
2018-06-02T21:59:21.067Z,19.20
2018-06-02T22:02:38.546Z,19.20
2018-06-02T22:05:56.160Z,19.20
2018-06-02T22:09:13.646Z,19.20
2018-06-02T22:12:31.207Z,19.20
2018-06-02T22:15:48.712Z,19.40
2018-06-02T22:19:06.198Z,19.40
2018-06-02T22:22:23.679Z,19.40
2018-06-02T22:25:41.190Z,19.40
2018-06-02T22:28:58.678Z,19.40
2018-06-02T22:32:16.214Z,19.40
2018-06-02T22:35:33.708Z,19.40
2018-06-02T22:38:51.276Z,19.30
2018-06-02T22:42:09.561Z,19.20
2018-06-02T22:45:27.843Z,19.20
2018-06-02T22:48:45.308Z,19.20
2018-06-02T22:52:02.789Z,19.20
2018-06-02T22:55:20.280Z,19.20
2018-06-02T22:58:37.754Z,19.10
2018-06-02T23:01:55.225Z,19.10
2018-06-02T23:05:12.745Z,18.90
2018-06-02T23:08:30.210Z,18.80
2018-06-02T23:11:48.473Z,18.70
2018-06-02T23:15:05.949Z,18.70
2018-06-02T23:18:23.440Z,18.70
2018-06-02T23:21:40.931Z,18.70
2018-06-02T23:24:58.404Z,18.70
2018-06-02T23:28:15.895Z,18.60
2018-06-02T23:31:33.369Z,18.60
2018-06-02T23:34:50.845Z,18.40
2018-06-02T23:38:08.327Z,18.20
2018-06-02T23:41:25.818Z,18.20
2018-06-02T23:44:43.286Z,18.30
2018-06-02T23:48:00.775Z,18.20
2018-06-02T23:51:18.260Z,18.10
2018-06-02T23:54:35.729Z,18.10
2018-06-02T23:57:53.208Z,18.20
